createdAt,value
2022-08-03T00:02:19.666Z,4.10
2022-08-03T00:04:48.174Z,4.47
2022-08-03T00:07:18.290Z,5.27
2022-08-03T00:09:46.714Z,4.30
2022-08-03T00:12:15.428Z,4.20
2022-08-03T00:14:43.857Z,3.90
2022-08-03T00:17:12.333Z,7.27
2022-08-03T00:19:40.489Z,4.50
2022-08-03T00:22:08.637Z,4.70
2022-08-03T00:24:38.111Z,5.07
2022-08-03T00:27:06.351Z,5.10
2022-08-03T00:29:34.618Z,4.70
2022-08-03T00:32:24.161Z,5.57
2022-08-03T00:34:58.882Z,5.20
2022-08-03T00:37:41.030Z,4.33
2022-08-03T00:40:13.721Z,4.73
2022-08-03T00:42:50.552Z,4.80
2022-08-03T00:45:19.565Z,5.57
2022-08-03T00:47:47.978Z,5.83
2022-08-03T00:50:16.808Z,6.23
2022-08-03T00:52:45.650Z,5.57
2022-08-03T00:55:15.412Z,5.93
2022-08-03T00:57:44.720Z,5.97
2022-08-03T01:00:15.473Z,5.50
2022-08-03T01:02:43.699Z,5.97
2022-08-03T01:05:12.818Z,5.30
2022-08-03T01:08:01.184Z,5.37
2022-08-03T01:10:40.797Z,4.83
2022-08-03T01:14:01.715Z,5.60
2022-08-03T01:16:16.429Z,5.13
2022-08-03T01:18:49.976Z,5.57
2022-08-03T01:21:27.813Z,4.60
2022-08-03T01:24:21.674Z,5.67
2022-08-03T01:27:00.745Z,5.20
2022-08-03T01:30:03.942Z,5.23
2022-08-03T01:32:53.557Z,5.27
2022-08-03T01:35:38.739Z,5.40
2022-08-03T01:38:12.365Z,4.40
2022-08-03T01:40:42.441Z,5.03
2022-08-03T01:43:13.877Z,5.80
2022-08-03T01:45:44.802Z,4.90
2022-08-03T01:48:16.836Z,5.90
2022-08-03T01:50:47.747Z,5.77
2022-08-03T01:53:18.331Z,5.60
2022-08-03T01:55:49.654Z,7.13
2022-08-03T01:58:20.826Z,6.23
2022-08-03T02:00:52.417Z,5.00
2022-08-03T02:03:24.229Z,6.30
2022-08-03T02:06:17.858Z,5.33
2022-08-03T02:08:45.844Z,5.57
2022-08-03T02:11:14.360Z,5.03
2022-08-03T02:13:45.469Z,5.30
2022-08-03T02:16:15.428Z,4.93
2022-08-03T02:18:44.264Z,5.33
2022-08-03T02:21:13.127Z,5.00
2022-08-03T02:24:01.268Z,4.67
2022-08-03T02:26:31.345Z,5.80
2022-08-03T02:29:10.161Z,5.37
2022-08-03T02:31:41.312Z,5.40
2022-08-03T02:34:14.307Z,5.23
2022-08-03T02:36:47.248Z,5.30
2022-08-03T02:39:18.519Z,5.30
2022-08-03T02:41:49.936Z,5.00
2022-08-03T02:44:24.730Z,5.10
2022-08-03T02:46:58.508Z,6.07
2022-08-03T02:49:49.670Z,5.87
2022-08-03T02:52:18.753Z,4.70
2022-08-03T02:54:49.653Z,4.63
2022-08-03T02:57:19.360Z,4.17
2022-08-03T02:59:48.565Z,6.80
2022-08-03T03:02:19.407Z,5.67
2022-08-03T03:05:53.625Z,5.47
2022-08-03T03:07:52.079Z,4.97
2022-08-03T03:10:22.535Z,4.40
2022-08-03T03:12:53.317Z,4.87
2022-08-03T03:15:21.704Z,5.77
2022-08-03T03:17:54.515Z,5.13
2022-08-03T03:20:29.420Z,4.60
2022-08-03T03:23:00.701Z,5.07
2022-08-03T03:25:31.600Z,4.53
2022-08-03T03:28:00.336Z,5.23
2022-08-03T03:30:29.930Z,5.20
2022-08-03T03:33:00.820Z,4.73
2022-08-03T03:35:29.475Z,5.40
2022-08-03T03:37:58.037Z,5.00
2022-08-03T03:40:26.312Z,5.10
2022-08-03T03:42:54.677Z,4.70
2022-08-03T03:45:24.367Z,4.90
2022-08-03T03:47:52.638Z,4.40
2022-08-03T03:50:23.758Z,4.57
2022-08-03T03:52:53.013Z,5.63
2022-08-03T03:55:21.285Z,4.90
2022-08-03T03:57:49.490Z,4.83
2022-08-03T04:00:19.876Z,5.50
2022-08-03T04:02:48.237Z,4.60
2022-08-03T04:05:34.052Z,4.47
2022-08-03T04:08:25.667Z,3.90
2022-08-03T04:11:02.662Z,4.27
2022-08-03T04:13:34.791Z,4.53
2022-08-03T04:16:04.360Z,4.50
2022-08-03T04:18:36.265Z,3.87
2022-08-03T04:21:09.509Z,4.50
2022-08-03T04:23:42.597Z,4.07
2022-08-03T04:26:14.517Z,4.43
2022-08-03T04:28:45.960Z,3.60
2022-08-03T04:31:16.069Z,3.80
2022-08-03T04:33:45.532Z,4.73
2022-08-03T04:36:18.308Z,3.70
2022-08-03T04:38:56.338Z,3.20
2022-08-03T04:41:26.656Z,4.60
2022-08-03T04:43:57.124Z,4.80
2022-08-03T04:46:28.085Z,4.60
2022-08-03T04:48:57.426Z,4.20
2022-08-03T04:51:26.490Z,4.07
2022-08-03T04:53:56.190Z,4.30
2022-08-03T04:56:24.351Z,4.60
2022-08-03T04:58:52.597Z,4.30
2022-08-03T05:01:22.521Z,3.67
2022-08-03T05:03:51.570Z,4.20
2022-08-03T05:06:19.688Z,4.73
2022-08-03T05:08:53.390Z,4.53
2022-08-03T05:11:22.961Z,3.87
2022-08-03T05:13:51.223Z,4.33
2022-08-03T05:16:19.739Z,4.30
2022-08-03T05:18:47.881Z,4.30
2022-08-03T05:21:16.882Z,4.40
2022-08-03T05:23:45.251Z,3.77
2022-08-03T05:26:13.441Z,3.80
2022-08-03T05:28:50.843Z,4.10
2022-08-03T05:31:20.176Z,4.13
2022-08-03T05:33:49.291Z,3.50
2022-08-03T05:36:17.826Z,3.20
2022-08-03T05:38:46.475Z,4.00
2022-08-03T05:41:22.168Z,3.40
2022-08-03T05:43:54.623Z,3.40
2022-08-03T05:46:23.133Z,4.80
2022-08-03T05:48:52.108Z,3.67
2022-08-03T05:51:20.423Z,3.70
2022-08-03T05:53:48.701Z,3.97
2022-08-03T05:56:17.161Z,3.60
2022-08-03T05:58:46.367Z,3.67
2022-08-03T06:01:16.369Z,3.93
2022-08-03T06:03:45.247Z,3.87
2022-08-03T06:06:13.798Z,3.97
2022-08-03T06:08:42.500Z,4.70
2022-08-03T06:11:10.887Z,3.50
2022-08-03T06:13:39.689Z,3.73
2022-08-03T06:16:07.974Z,3.43
2022-08-03T06:18:38.854Z,3.70
2022-08-03T06:21:09.700Z,3.20
2022-08-03T06:23:54.553Z,4.03
2022-08-03T06:26:28.189Z,3.40
2022-08-03T06:28:56.657Z,3.80
2022-08-03T06:31:33.316Z,3.60
2022-08-03T06:34:33.905Z,3.53
2022-08-03T06:37:01.353Z,3.10
2022-08-03T06:39:30.633Z,4.03
2022-08-03T06:41:59.101Z,3.40
2022-08-03T06:44:27.370Z,3.20
2022-08-03T06:46:55.804Z,2.73
2022-08-03T06:49:25.574Z,2.50
2022-08-03T06:52:05.914Z,2.07
2022-08-03T06:54:37.892Z,3.40
2022-08-03T06:57:08.105Z,2.67
2022-08-03T07:00:10.829Z,2.30
2022-08-03T07:02:24.439Z,3.10
2022-08-03T07:04:58.454Z,2.57
2022-08-03T07:07:26.630Z,2.77
2022-08-03T07:09:56.753Z,2.17
2022-08-03T07:12:26.682Z,2.67
2022-08-03T07:14:59.991Z,1.60
2022-08-03T07:17:29.769Z,2.60
2022-08-03T07:20:00.176Z,1.93
2022-08-03T07:22:29.403Z,2.43
2022-08-03T07:24:57.773Z,1.80
2022-08-03T07:27:28.555Z,1.90
2022-08-03T07:29:57.633Z,1.30
2022-08-03T07:32:26.186Z,1.27
2022-08-03T07:34:59.887Z,1.40
2022-08-03T07:37:30.709Z,0.90
2022-08-03T07:39:59.213Z,1.40
2022-08-03T07:42:27.851Z,1.20
2022-08-03T07:44:56.881Z,0.97
2022-08-03T07:47:35.454Z,1.00
2022-08-03T07:50:06.551Z,1.37
2022-08-03T07:52:51.749Z,0.93
2022-08-03T07:55:21.913Z,1.17
2022-08-03T07:58:00.954Z,1.00
2022-08-03T08:00:29.155Z,1.57
2022-08-03T08:02:57.322Z,1.37
2022-08-03T08:05:25.543Z,1.13
2022-08-03T08:07:55.449Z,1.20
2022-08-03T08:10:24.057Z,1.00
2022-08-03T08:12:52.629Z,1.40
2022-08-03T08:15:20.888Z,1.37
2022-08-03T08:17:51.060Z,1.00
2022-08-03T08:20:27.035Z,1.40
2022-08-03T08:23:01.852Z,1.10
2022-08-03T08:25:32.044Z,1.10
2022-08-03T08:28:22.435Z,1.10
2022-08-03T08:30:51.103Z,1.00
2022-08-03T08:33:22.673Z,0.90
2022-08-03T08:35:53.965Z,1.70
2022-08-03T08:38:24.185Z,0.97
2022-08-03T08:40:52.450Z,1.10
2022-08-03T08:43:20.628Z,1.10
2022-08-03T08:45:50.800Z,1.30
2022-08-03T08:48:23.542Z,1.10
2022-08-03T08:50:54.037Z,1.00
2022-08-03T08:53:27.605Z,1.03
2022-08-03T08:56:00.682Z,1.00
2022-08-03T08:58:37.857Z,1.60
2022-08-03T09:01:07.464Z,0.97
2022-08-03T09:03:35.760Z,1.57
2022-08-03T09:06:04.583Z,1.00
2022-08-03T09:08:34.640Z,1.20
2022-08-03T09:11:02.885Z,1.10
2022-08-03T09:13:31.574Z,1.10
2022-08-03T09:16:14.466Z,1.33
2022-08-03T09:18:43.980Z,1.60
2022-08-03T09:21:31.113Z,1.47
2022-08-03T09:24:05.135Z,1.27
2022-08-03T09:26:36.113Z,1.00
2022-08-03T09:29:11.176Z,1.13
2022-08-03T09:31:44.685Z,1.20
2022-08-03T09:34:17.962Z,1.77
2022-08-03T09:36:48.248Z,1.20
2022-08-03T09:39:19.373Z,1.40
2022-08-03T09:41:50.212Z,1.40
2022-08-03T09:44:25.808Z,1.67
2022-08-03T09:46:57.058Z,1.30
2022-08-03T09:49:25.806Z,1.30
2022-08-03T09:52:32.976Z,1.23
2022-08-03T09:54:44.530Z,1.50
2022-08-03T09:57:23.131Z,1.30
2022-08-03T09:59:58.788Z,1.37
2022-08-03T10:02:41.530Z,1.27
2022-08-03T10:05:11.524Z,1.00
2022-08-03T10:07:49.676Z,1.30
2022-08-03T10:10:31.142Z,1.03
2022-08-03T10:13:01.129Z,1.87
2022-08-03T10:16:23.840Z,1.33
2022-08-03T10:18:18.164Z,1.37
2022-08-03T10:20:51.069Z,1.20
2022-08-03T10:23:19.947Z,1.30
2022-08-03T10:25:54.350Z,1.40
2022-08-03T10:28:23.389Z,1.60
2022-08-03T10:30:53.881Z,1.50
2022-08-03T10:33:51.512Z,1.20
2022-08-03T10:36:15.122Z,1.20
2022-08-03T10:38:52.405Z,1.00
2022-08-03T10:41:24.299Z,1.27
2022-08-03T10:43:57.433Z,1.30
2022-08-03T10:46:28.001Z,1.00
2022-08-03T10:48:57.501Z,1.67
2022-08-03T10:51:30.492Z,1.20
2022-08-03T10:53:59.175Z,1.00
2022-08-03T10:57:01.123Z,1.30
2022-08-03T11:00:04.348Z,1.20
2022-08-03T11:03:06.536Z,1.23
2022-08-03T11:05:36.879Z,1.10
2022-08-03T11:08:24.811Z,1.10
2022-08-03T11:10:55.167Z,1.00
2022-08-03T11:13:28.273Z,0.90
2022-08-03T11:16:00.081Z,1.07
2022-08-03T11:18:31.813Z,1.43
2022-08-03T11:21:01.511Z,1.00
2022-08-03T11:24:02.434Z,0.80
2022-08-03T11:26:32.974Z,1.37
2022-08-03T11:29:29.026Z,0.90
2022-08-03T11:31:57.573Z,1.30
2022-08-03T11:34:25.948Z,1.00
2022-08-03T11:37:20.456Z,1.30
2022-08-03T11:39:53.024Z,1.00
2022-08-03T11:42:47.969Z,1.00
2022-08-03T11:45:19.839Z,1.30
2022-08-03T11:47:51.482Z,1.23
2022-08-03T11:50:21.369Z,1.40
2022-08-03T11:52:51.163Z,1.00
2022-08-03T11:55:21.664Z,1.00
2022-08-03T11:59:17.557Z,0.87
2022-08-03T12:00:40.590Z,0.97
2022-08-03T12:03:11.125Z,1.10
2022-08-03T12:05:51.184Z,0.80
2022-08-03T12:08:32.535Z,1.00
2022-08-03T12:11:02.965Z,0.93
2022-08-03T12:14:35.761Z,1.03
2022-08-03T12:16:29.577Z,1.43
2022-08-03T12:18:59.606Z,0.93
2022-08-03T12:21:28.632Z,0.80
2022-08-03T12:24:00.912Z,1.07
2022-08-03T12:26:30.180Z,0.97
2022-08-03T12:28:58.593Z,0.70
2022-08-03T12:31:28.091Z,0.83
2022-08-03T12:33:59.022Z,0.77
2022-08-03T12:36:28.467Z,1.00
2022-08-03T12:38:59.966Z,0.90
2022-08-03T12:41:30.278Z,1.10
2022-08-03T12:43:58.857Z,1.37
2022-08-03T12:46:33.694Z,0.90
2022-08-03T12:49:07.902Z,1.00
2022-08-03T12:51:38.948Z,1.07
2022-08-03T12:54:07.881Z,1.00
2022-08-03T12:56:36.433Z,1.50
2022-08-03T12:59:34.748Z,1.13
2022-08-03T13:02:09.414Z,1.00
2022-08-03T13:04:38.345Z,0.93
2022-08-03T13:07:14.319Z,1.20
2022-08-03T13:09:44.336Z,0.80
2022-08-03T13:12:14.470Z,1.00
2022-08-03T13:14:43.528Z,0.90
2022-08-03T13:17:13.446Z,1.00
2022-08-03T13:19:41.886Z,1.23
2022-08-03T13:22:14.312Z,1.13
2022-08-03T13:24:43.961Z,1.13
2022-08-03T13:28:01.234Z,1.10
2022-08-03T13:30:01.117Z,1.57
2022-08-03T13:32:30.802Z,1.20
2022-08-03T13:34:59.115Z,1.33
2022-08-03T13:37:27.824Z,1.03
2022-08-03T13:39:59.423Z,1.00
2022-08-03T13:42:30.571Z,1.10
2022-08-03T13:44:59.253Z,1.00
2022-08-03T13:47:27.651Z,1.00
2022-08-03T13:50:01.745Z,0.80
2022-08-03T13:52:32.721Z,0.80
2022-08-03T13:55:01.430Z,0.90
2022-08-03T13:58:02.243Z,1.00
2022-08-03T14:00:28.014Z,1.00
2022-08-03T14:03:05.229Z,1.00
2022-08-03T14:05:38.260Z,0.80
2022-08-03T14:08:07.664Z,0.83
2022-08-03T14:10:38.460Z,0.80
2022-08-03T14:13:07.418Z,0.90
2022-08-03T14:15:37.913Z,0.80
2022-08-03T14:18:15.540Z,0.80
2022-08-03T14:20:50.136Z,0.90
2022-08-03T14:23:22.478Z,1.07
2022-08-03T14:25:52.322Z,0.90
2022-08-03T14:28:22.534Z,0.93
2022-08-03T14:30:51.409Z,0.80
2022-08-03T14:33:19.761Z,0.90
2022-08-03T14:35:50.027Z,0.80
2022-08-03T14:38:18.953Z,0.90
2022-08-03T14:40:47.443Z,0.90
2022-08-03T14:43:17.800Z,0.80
2022-08-03T14:45:46.065Z,1.07
2022-08-03T14:50:33.508Z,1.00
2022-08-03T14:51:04.050Z,0.70
2022-08-03T14:53:32.245Z,0.93
2022-08-03T14:56:00.414Z,0.80
2022-08-03T14:58:28.610Z,1.10
2022-08-03T15:00:57.041Z,1.10
2022-08-03T15:03:26.041Z,0.87
2022-08-03T15:05:56.347Z,0.90
2022-08-03T15:08:27.098Z,1.00
2022-08-03T15:10:56.003Z,0.80
2022-08-03T15:13:25.327Z,3.20
2022-08-03T15:15:53.690Z,1.20
2022-08-03T15:18:21.843Z,1.23
2022-08-03T15:20:50.870Z,0.80
2022-08-03T15:23:19.720Z,0.70
2022-08-03T15:26:29.636Z,0.80
2022-08-03T15:28:37.739Z,0.70
2022-08-03T15:31:06.806Z,0.70
2022-08-03T15:33:35.219Z,0.70
2022-08-03T15:36:04.359Z,0.80
2022-08-03T15:38:32.527Z,1.00
2022-08-03T15:41:02.353Z,0.80
2022-08-03T15:43:30.548Z,0.87
2022-08-03T15:46:28.373Z,0.70
2022-08-03T15:48:47.804Z,0.80
2022-08-03T15:51:16.037Z,0.80
2022-08-03T15:53:44.293Z,0.90
2022-08-03T15:56:18.259Z,0.80
2022-08-03T15:59:09.446Z,0.67
2022-08-03T16:01:35.695Z,0.80
2022-08-03T16:04:04.426Z,0.93
2022-08-03T16:06:36.086Z,0.90
2022-08-03T16:09:23.810Z,0.73
2022-08-03T16:11:56.828Z,0.70
2022-08-03T16:14:34.235Z,0.70
2022-08-03T16:17:04.746Z,0.90
2022-08-03T16:19:32.901Z,0.70
2022-08-03T16:22:01.741Z,0.80
2022-08-03T16:24:32.038Z,0.90
2022-08-03T16:27:01.686Z,0.90
2022-08-03T16:29:30.300Z,0.70
2022-08-03T16:31:58.505Z,0.90
2022-08-03T16:34:26.742Z,0.80
2022-08-03T16:36:55.590Z,0.90
2022-08-03T16:39:23.907Z,0.90
2022-08-03T16:41:53.557Z,0.70
2022-08-03T16:44:32.073Z,0.80
2022-08-03T16:47:00.752Z,0.73
2022-08-03T16:49:54.219Z,0.80
2022-08-03T16:52:18.052Z,1.10
2022-08-03T16:54:52.804Z,1.37
2022-08-03T16:57:58.213Z,1.10
2022-08-03T17:00:32.880Z,0.93
2022-08-03T17:03:12.470Z,1.00
2022-08-03T17:05:48.242Z,1.30
2022-08-03T17:08:26.651Z,0.97
2022-08-03T17:10:56.426Z,1.20
2022-08-03T17:13:27.687Z,1.00
2022-08-03T17:16:12.162Z,1.50
2022-08-03T17:18:52.002Z,1.17
2022-08-03T17:21:26.470Z,0.90
2022-08-03T17:24:04.135Z,1.20
2022-08-03T17:26:35.233Z,1.10
2022-08-03T17:29:11.106Z,1.40
2022-08-03T17:31:49.282Z,1.13
2022-08-03T17:34:18.777Z,1.20
2022-08-03T17:37:05.412Z,1.00
2022-08-03T17:40:04.671Z,1.10
2022-08-03T17:42:39.143Z,1.07
2022-08-03T17:45:08.815Z,1.00
2022-08-03T17:47:45.822Z,1.30
2022-08-03T17:50:35.833Z,1.50
2022-08-03T17:53:15.394Z,1.20
2022-08-03T17:56:04.879Z,1.20
2022-08-03T17:58:56.635Z,3.10
2022-08-03T18:02:00.629Z,2.47
2022-08-03T18:04:42.603Z,1.40
2022-08-03T18:07:12.533Z,2.53
2022-08-03T18:10:03.278Z,1.50
2022-08-03T18:12:45.811Z,1.27
2022-08-03T18:15:25.113Z,1.40
2022-08-03T18:18:01.881Z,1.53
2022-08-03T18:20:41.166Z,1.30
2022-08-03T18:23:25.344Z,1.57
2022-08-03T18:26:02.271Z,1.70
2022-08-03T18:28:34.699Z,2.50
2022-08-03T18:31:05.988Z,2.03
2022-08-03T18:34:17.949Z,1.07
2022-08-03T18:36:30.444Z,3.03
2022-08-03T18:39:02.698Z,1.70
2022-08-03T18:41:34.365Z,2.03
2022-08-03T18:44:06.643Z,1.50
2022-08-03T18:46:46.725Z,3.37
2022-08-03T18:49:36.786Z,1.60
2022-08-03T18:55:19.697Z,1.53
2022-08-03T18:57:53.166Z,1.80
2022-08-03T19:00:24.449Z,1.60
2022-08-03T19:03:12.419Z,2.30
2022-08-03T19:06:13.268Z,1.30
2022-08-03T19:08:50.156Z,2.60
2022-08-03T19:11:28.163Z,1.33
2022-08-03T19:13:59.214Z,8.07
2022-08-03T19:16:34.299Z,1.80
2022-08-03T19:19:03.079Z,3.20
2022-08-03T19:21:34.464Z,2.67
2022-08-03T19:24:09.640Z,5.93
2022-08-03T19:26:39.573Z,1.87
2022-08-03T19:29:14.785Z,1.50
2022-08-03T19:31:59.118Z,3.23
2022-08-03T19:34:30.382Z,2.07
2022-08-03T19:36:59.102Z,2.40
2022-08-03T19:39:29.382Z,3.33
2022-08-03T19:42:10.997Z,1.70
2022-08-03T19:44:52.047Z,1.70
2022-08-03T19:47:28.132Z,1.60
2022-08-03T19:50:10.581Z,2.70
2022-08-03T19:52:44.001Z,2.07
2022-08-03T19:55:13.504Z,2.43
2022-08-03T19:57:45.611Z,2.03
2022-08-03T20:00:19.218Z,2.30
2022-08-03T20:02:50.782Z,2.77
2022-08-03T20:05:19.457Z,2.00
2022-08-03T20:07:48.607Z,2.73
2022-08-03T20:10:19.320Z,1.90
2022-08-03T20:12:49.456Z,1.97
2022-08-03T20:15:30.831Z,2.17
2022-08-03T20:18:00.781Z,2.47
2022-08-03T20:20:32.600Z,2.30
2022-08-03T20:23:06.787Z,3.63
2022-08-03T20:25:57.172Z,2.70
2022-08-03T20:28:31.997Z,2.30
2022-08-03T20:31:01.974Z,2.47
2022-08-03T20:33:46.725Z,3.20
2022-08-03T20:36:18.250Z,3.40
2022-08-03T20:38:48.050Z,2.60
2022-08-03T20:41:18.403Z,2.10
2022-08-03T20:43:49.278Z,5.17
2022-08-03T20:46:29.630Z,2.30
2022-08-03T20:49:03.832Z,2.10
2022-08-03T20:51:50.604Z,3.00
2022-08-03T20:54:30.491Z,2.73
2022-08-03T20:57:03.716Z,4.00
2022-08-03T20:59:46.874Z,3.07
2022-08-03T21:02:29.603Z,2.50
2022-08-03T21:05:03.199Z,2.10
2022-08-03T21:08:05.548Z,2.40
2022-08-03T21:10:31.256Z,2.80
2022-08-03T21:13:10.803Z,12.53
2022-08-03T21:13:15.922Z,3.23
2022-08-03T21:16:12.512Z,3.60
2022-08-03T21:18:38.052Z,2.70
2022-08-03T21:21:08.709Z,2.30
2022-08-03T21:23:49.166Z,2.70
2022-08-03T21:26:19.871Z,3.70
2022-08-03T21:28:51.477Z,2.63
2022-08-03T21:31:25.553Z,2.30
2022-08-03T21:33:56.770Z,2.23
2022-08-03T21:36:27.720Z,2.10
2022-08-03T21:38:57.731Z,2.50
2022-08-03T21:41:27.212Z,2.10
2022-08-03T21:43:57.380Z,2.43
2022-08-03T21:46:27.749Z,2.30
2022-08-03T21:50:05.845Z,2.70
2022-08-03T21:51:50.407Z,2.57
2022-08-03T21:54:21.581Z,2.93
2022-08-03T21:56:51.980Z,3.00
2022-08-03T21:59:24.074Z,3.90
2022-08-03T22:01:55.359Z,2.80
2022-08-03T22:04:45.922Z,3.17
2022-08-03T22:07:16.608Z,3.23
2022-08-03T22:09:50.975Z,2.60
2022-08-03T22:12:23.625Z,2.80
2022-08-03T22:15:01.251Z,3.20
2022-08-03T22:17:55.653Z,4.17
2022-08-03T22:20:21.150Z,3.23
2022-08-03T22:22:55.707Z,3.47
2022-08-03T22:25:28.677Z,3.30
2022-08-03T22:27:59.735Z,4.10
2022-08-03T22:30:29.450Z,4.20
2022-08-03T22:32:58.798Z,4.57
2022-08-03T22:35:28.254Z,3.33
2022-08-03T22:37:58.322Z,3.17
2022-08-03T22:40:27.373Z,4.20
2022-08-03T22:42:55.537Z,3.13
2022-08-03T22:46:08.931Z,3.30
2022-08-03T22:48:17.743Z,2.70
2022-08-03T22:50:47.157Z,3.00
2022-08-03T22:53:21.380Z,3.13
2022-08-03T22:55:51.235Z,3.90
2022-08-03T22:58:20.829Z,3.50
2022-08-03T23:00:54.146Z,3.27
2022-08-03T23:03:58.658Z,3.07
2022-08-03T23:06:15.995Z,3.40
2022-08-03T23:08:47.733Z,3.30
2022-08-03T23:11:19.463Z,3.50
2022-08-03T23:13:50.180Z,3.67
2022-08-03T23:16:29.175Z,3.40
2022-08-03T23:19:16.341Z,3.50
2022-08-03T23:22:00.154Z,3.60
2022-08-03T23:24:30.942Z,3.53
2022-08-03T23:26:59.389Z,4.23
2022-08-03T23:29:31.305Z,4.00
2022-08-03T23:31:59.622Z,3.87
2022-08-03T23:34:46.884Z,4.40
2022-08-03T23:37:15.885Z,3.70
2022-08-03T23:39:47.188Z,4.03
2022-08-03T23:42:18.019Z,3.30
2022-08-03T23:44:47.209Z,3.70
2022-08-03T23:47:15.576Z,3.20
2022-08-03T23:49:45.173Z,8.30
2022-08-03T23:52:21.893Z,6.63
2022-08-03T23:55:03.899Z,4.70
2022-08-03T23:57:41.917Z,3.70
